createdAt,value
2022-10-21T00:01:11.533Z,151951.25
2022-10-21T00:03:37.582Z,151941.09
2022-10-21T00:06:04.149Z,151939.81
2022-10-21T00:08:30.080Z,151949.97
2022-10-21T00:11:01.071Z,151941.09
2022-10-21T00:13:28.848Z,151957.56
2022-10-21T00:16:03.895Z,151938.56
2022-10-21T00:18:30.689Z,151941.09
2022-10-21T00:20:56.520Z,151937.28
2022-10-21T00:23:22.430Z,151969.00
2022-10-21T00:25:48.278Z,151949.97
2022-10-21T00:28:14.543Z,151947.44
2022-10-21T00:30:44.673Z,151969.00
2022-10-21T00:33:11.575Z,151955.03
2022-10-21T00:35:37.582Z,151963.94
2022-10-21T00:38:03.444Z,151985.47
2022-10-21T00:40:29.411Z,151967.72
2022-10-21T00:42:55.195Z,151971.53
2022-10-21T00:45:24.644Z,151976.59
2022-10-21T00:48:03.878Z,151969.00
2022-10-21T00:50:37.592Z,151996.88
2022-10-21T00:53:08.868Z,151990.53
2022-10-21T00:55:40.035Z,151979.13
2022-10-21T00:58:07.110Z,151962.63
2022-10-21T01:00:32.925Z,151979.13
2022-10-21T01:02:59.210Z,151965.19
2022-10-21T01:05:26.168Z,151981.63
2022-10-21T01:07:52.089Z,152004.50
2022-10-21T01:10:17.929Z,151984.22
2022-10-21T01:13:17.217Z,151966.47
2022-10-21T01:15:58.483Z,151981.63
2022-10-21T01:18:38.176Z,151960.09
2022-10-21T01:21:03.951Z,151993.06
2022-10-21T01:24:00.769Z,152005.75
2022-10-21T01:26:44.459Z,152010.81
2022-10-21T01:29:10.202Z,152013.34
2022-10-21T01:31:43.224Z,152038.75
2022-10-21T01:34:20.182Z,152037.47
2022-10-21T01:36:54.085Z,152026.03
2022-10-21T01:39:34.733Z,152018.47
2022-10-21T01:45:17.330Z,152043.81
2022-10-21T01:47:47.854Z,152029.84
2022-10-21T01:50:18.474Z,152032.38
2022-10-21T01:52:49.024Z,152029.84
2022-10-21T01:55:19.469Z,152034.91
2022-10-21T01:57:58.078Z,152003.22
2022-10-21T02:02:58.523Z,152043.81
2022-10-21T02:05:31.272Z,152038.75
2022-10-21T02:07:57.638Z,152021.00
2022-10-21T02:10:27.959Z,152036.22
2022-10-21T02:12:57.844Z,152043.81
2022-10-21T02:15:25.243Z,152078.03
2022-10-21T02:18:07.358Z,152084.38
2022-10-21T02:20:40.528Z,152081.84
2022-10-21T02:23:07.744Z,152112.34
2022-10-21T02:25:37.356Z,152118.66
2022-10-21T02:28:03.875Z,152113.63
2022-10-21T02:30:41.027Z,152097.13
2022-10-21T02:33:15.033Z,152102.19
2022-10-21T02:35:57.274Z,152081.84
2022-10-21T02:38:32.135Z,152076.78
2022-10-21T02:41:01.832Z,152081.84
2022-10-21T02:43:32.870Z,152075.50
2022-10-21T02:46:01.321Z,152053.97
2022-10-21T02:48:27.108Z,152062.81
2022-10-21T02:50:52.937Z,152067.88
2022-10-21T02:53:18.711Z,152046.31
2022-10-21T02:55:44.493Z,152048.84
2022-10-21T02:58:10.302Z,152043.81
2022-10-21T03:00:36.112Z,152051.38
2022-10-21T03:03:01.925Z,152040.00
2022-10-21T03:05:27.783Z,152042.53
2022-10-21T03:07:53.630Z,152050.13
2022-10-21T03:10:19.503Z,152071.66
2022-10-21T03:12:45.375Z,152064.09
2022-10-21T03:15:11.212Z,152045.06
2022-10-21T03:17:37.169Z,152040.00
2022-10-21T03:20:03.416Z,152040.00
2022-10-21T03:22:29.159Z,152026.03
2022-10-21T03:24:54.924Z,152021.00
2022-10-21T03:27:20.704Z,152028.56
2022-10-21T03:29:46.477Z,152017.16
2022-10-21T03:32:12.228Z,152010.81
2022-10-21T03:34:37.962Z,151975.31
2022-10-21T03:37:03.799Z,151975.31
2022-10-21T03:39:29.537Z,151980.38
2022-10-21T03:41:55.354Z,151967.72
2022-10-21T03:44:21.100Z,151969.00
2022-10-21T03:46:46.905Z,151988.00
2022-10-21T03:49:21.094Z,151969.00
2022-10-21T03:51:52.852Z,151947.44
2022-10-21T03:54:18.768Z,151925.88
2022-10-21T03:56:44.556Z,151949.97
2022-10-21T03:59:10.316Z,151942.34
2022-10-21T04:01:36.330Z,151937.28
2022-10-21T04:04:02.200Z,151913.22
2022-10-21T04:06:27.976Z,151915.75
2022-10-21T04:08:53.952Z,151904.31
2022-10-21T04:11:19.722Z,151887.84
2022-10-21T04:13:45.544Z,151873.94
2022-10-21T04:16:17.786Z,151887.84
2022-10-21T04:18:43.889Z,151889.09
2022-10-21T04:21:10.059Z,151865.03
2022-10-21T04:23:36.328Z,151868.81
2022-10-21T04:26:03.004Z,151862.50
2022-10-21T04:28:28.874Z,151863.78
2022-10-21T04:30:54.628Z,151870.09
2022-10-21T04:33:20.431Z,151900.53
2022-10-21T04:35:46.201Z,151867.56
2022-10-21T04:38:12.113Z,151881.50
2022-10-21T04:40:37.962Z,151889.09
2022-10-21T04:43:03.791Z,151875.19
2022-10-21T04:45:29.635Z,151858.72
2022-10-21T04:47:55.457Z,151833.34
2022-10-21T04:50:21.303Z,151832.06
2022-10-21T04:52:47.086Z,151832.06
2022-10-21T04:55:12.954Z,151824.50
2022-10-21T04:57:39.646Z,151846.03
2022-10-21T05:00:06.449Z,151830.81
2022-10-21T05:02:32.607Z,151828.28
2022-10-21T05:04:58.531Z,151823.22
2022-10-21T05:07:24.310Z,151839.72
2022-10-21T05:09:50.059Z,151816.84
2022-10-21T05:12:15.851Z,151834.59
2022-10-21T05:14:41.602Z,151820.69
2022-10-21T05:17:07.515Z,151846.03
2022-10-21T05:19:33.321Z,151852.34
2022-10-21T05:21:59.537Z,151858.72
2022-10-21T05:24:25.460Z,151857.44
2022-10-21T05:26:51.498Z,151851.09
2022-10-21T05:29:17.518Z,151859.97
2022-10-21T05:31:43.807Z,151846.03
2022-10-21T05:34:09.638Z,151844.75
2022-10-21T05:36:35.716Z,151856.19
2022-10-21T05:39:02.247Z,151859.97
2022-10-21T05:41:28.119Z,151866.31
2022-10-21T05:43:53.947Z,151868.81
2022-10-21T05:46:19.789Z,151879.00
2022-10-21T05:48:45.582Z,151892.94
2022-10-21T05:51:11.398Z,151891.69
2022-10-21T05:53:39.039Z,151884.03
2022-10-21T05:56:06.955Z,151885.31
2022-10-21T05:58:33.978Z,151882.78
2022-10-21T06:01:00.348Z,151880.25
2022-10-21T06:03:31.740Z,151903.06
2022-10-21T06:05:58.723Z,151924.59
2022-10-21T06:08:25.011Z,151929.69
2022-10-21T06:11:00.194Z,151937.28
2022-10-21T06:13:26.010Z,151956.31
2022-10-21T06:15:51.857Z,151958.84
2022-10-21T06:18:17.768Z,151941.09
2022-10-21T06:20:43.660Z,151934.75
2022-10-21T06:23:11.557Z,151951.25
2022-10-21T06:25:37.383Z,151965.19
2022-10-21T06:28:03.386Z,151962.63
2022-10-21T06:30:29.187Z,151928.44
2022-10-21T06:32:54.979Z,151953.78
2022-10-21T06:35:20.765Z,151989.28
2022-10-21T06:37:46.578Z,151962.63
2022-10-21T06:40:12.388Z,151955.03
2022-10-21T06:42:38.371Z,151956.31
2022-10-21T06:45:04.608Z,151970.25
2022-10-21T06:47:30.382Z,151985.47
2022-10-21T06:49:56.173Z,151994.34
2022-10-21T06:52:22.041Z,151996.88
2022-10-21T06:54:48.215Z,151998.13
2022-10-21T06:57:14.074Z,152013.34
2022-10-21T06:59:39.893Z,152017.16
2022-10-21T07:02:06.199Z,152024.78
2022-10-21T07:04:31.964Z,152033.63
2022-10-21T07:06:57.832Z,152051.38
2022-10-21T07:09:23.877Z,152062.81
2022-10-21T07:11:49.798Z,152066.63
2022-10-21T07:14:15.619Z,152078.03
2022-10-21T07:16:41.475Z,152094.59
2022-10-21T07:19:09.376Z,152088.16
2022-10-21T07:21:35.160Z,152097.13
2022-10-21T07:24:01.189Z,152114.88
2022-10-21T07:26:31.697Z,152105.97
2022-10-21T07:28:59.633Z,152094.59
2022-10-21T07:31:27.076Z,152118.66
2022-10-21T07:33:54.299Z,152112.34
2022-10-21T07:36:23.042Z,152097.13
2022-10-21T07:38:49.777Z,152114.88
2022-10-21T07:41:21.658Z,152107.22
2022-10-21T07:43:47.717Z,152121.19
2022-10-21T07:46:13.979Z,152118.66
2022-10-21T07:48:39.777Z,152113.63
2022-10-21T07:51:08.502Z,152132.63
2022-10-21T07:53:34.456Z,152131.38
2022-10-21T07:56:10.513Z,152116.13
2022-10-21T07:58:36.319Z,152133.91
2022-10-21T08:01:05.321Z,152147.88
2022-10-21T08:03:31.561Z,152141.50
2022-10-21T08:05:57.401Z,152161.78
2022-10-21T08:08:24.191Z,152161.78
2022-10-21T08:10:52.211Z,152160.50
2022-10-21T08:13:18.423Z,152177.00
2022-10-21T08:15:56.112Z,152179.53
2022-10-21T08:18:22.344Z,152179.53
2022-10-21T08:20:49.612Z,152165.63
2022-10-21T08:23:18.555Z,152150.41
2022-10-21T08:25:53.393Z,152174.47
2022-10-21T08:28:20.726Z,152175.75
2022-10-21T08:30:46.524Z,152170.69
2022-10-21T08:33:13.308Z,152185.91
2022-10-21T08:35:39.854Z,152166.88
2022-10-21T08:40:41.308Z,152193.50
2022-10-21T08:43:09.656Z,152204.94
2022-10-21T08:45:45.544Z,152211.28
2022-10-21T08:48:17.557Z,152211.28
2022-10-21T08:50:47.486Z,152227.75
2022-10-21T08:53:20.695Z,152204.94
2022-10-21T08:55:47.236Z,152183.38
2022-10-21T08:58:18.041Z,152174.47
2022-10-21T09:00:53.303Z,152188.44
2022-10-21T09:03:44.826Z,152193.50
2022-10-21T09:06:19.338Z,152183.38
2022-10-21T09:08:48.151Z,152177.00
2022-10-21T09:11:32.123Z,152197.31
2022-10-21T09:14:14.172Z,152190.97
2022-10-21T09:17:02.106Z,152189.72
2022-10-21T09:20:00.212Z,152188.44
2022-10-21T09:22:50.906Z,152199.88
2022-10-21T09:25:26.898Z,152174.47
2022-10-21T09:27:57.054Z,152193.50
2022-10-21T09:30:24.389Z,152192.25
2022-10-21T09:32:56.445Z,152152.91
2022-10-21T09:35:37.093Z,152150.41
2022-10-21T09:38:18.132Z,152166.88
2022-10-21T09:40:47.529Z,152156.72
2022-10-21T09:43:18.873Z,152174.47
2022-10-21T09:45:46.245Z,152168.16
2022-10-21T09:48:42.648Z,152177.00
2022-10-21T09:51:31.050Z,152183.38
2022-10-21T09:54:04.161Z,152159.25
2022-10-21T09:56:44.928Z,152192.25
2022-10-21T09:59:14.252Z,152166.88
2022-10-21T10:01:41.915Z,152180.84
2022-10-21T10:04:21.177Z,152215.06
2022-10-21T10:06:47.293Z,152169.41
2022-10-21T10:09:33.793Z,152174.47
2022-10-21T10:11:59.566Z,152163.09
2022-10-21T10:14:32.919Z,152131.38
2022-10-21T10:17:28.414Z,152131.38
2022-10-21T10:20:14.669Z,152135.16
2022-10-21T10:23:08.346Z,152130.09
2022-10-21T10:25:36.936Z,152151.66
2022-10-21T10:28:08.759Z,152164.34
2022-10-21T10:30:40.400Z,152145.34
2022-10-21T10:33:28.568Z,152122.47
2022-10-21T10:36:00.256Z,152109.81
2022-10-21T10:38:28.996Z,152128.84
2022-10-21T10:41:03.302Z,152160.50
2022-10-21T10:43:32.666Z,152168.16
2022-10-21T10:46:04.246Z,152179.53
2022-10-21T10:48:48.097Z,152197.31
2022-10-21T10:51:34.933Z,152202.41
2022-10-21T10:54:25.893Z,152199.88
2022-10-21T10:56:55.853Z,152197.31
2022-10-21T10:59:27.582Z,152204.94
2022-10-21T11:02:12.212Z,152218.91
2022-10-21T11:04:38.411Z,152237.94
2022-10-21T11:07:07.171Z,152251.84
2022-10-21T11:09:33.626Z,152217.66
2022-10-21T11:12:05.386Z,152216.38
2022-10-21T11:14:31.212Z,152215.06
2022-10-21T11:17:02.689Z,152251.84
2022-10-21T11:19:37.312Z,152259.50
2022-10-21T11:22:06.238Z,152270.94
2022-10-21T11:24:32.092Z,152278.53
2022-10-21T11:27:06.629Z,152265.81
2022-10-21T11:30:19.216Z,152240.47
2022-10-21T11:33:09.665Z,152226.50
2022-10-21T11:36:03.637Z,152237.94
2022-10-21T11:39:02.120Z,152220.19
2022-10-21T11:41:44.277Z,152230.28
2022-10-21T11:44:54.386Z,152213.81
2022-10-21T11:47:27.603Z,152223.97
2022-10-21T11:49:59.462Z,152210.00
2022-10-21T11:53:11.912Z,152192.25
2022-10-21T11:55:49.576Z,152218.91
2022-10-21T11:58:38.398Z,152270.94
2022-10-21T12:01:16.417Z,152282.31
2022-10-21T12:04:06.332Z,152331.84
2022-10-21T12:06:47.009Z,152362.31
2022-10-21T12:09:29.260Z,152409.28
2022-10-21T12:12:05.624Z,152470.25
2022-10-21T12:14:41.909Z,152477.84
2022-10-21T12:17:16.753Z,152467.69
2022-10-21T12:19:49.104Z,152491.84
2022-10-21T12:22:15.173Z,152488.03
2022-10-21T12:24:55.280Z,152504.50
2022-10-21T12:27:31.752Z,152488.03
2022-10-21T12:30:12.285Z,152510.88
2022-10-21T12:32:44.378Z,152491.84
2022-10-21T12:35:25.298Z,152559.09
2022-10-21T12:37:51.018Z,152524.84
2022-10-21T12:40:35.217Z,152562.94
2022-10-21T12:43:15.081Z,152579.47
2022-10-21T12:45:41.307Z,152541.38
2022-10-21T12:48:26.598Z,152523.59
2022-10-21T12:51:01.826Z,152562.94
2022-10-21T12:53:47.476Z,152615.03
2022-10-21T12:56:29.918Z,152777.69
2022-10-21T12:59:04.797Z,153621.22
2022-10-21T13:02:04.643Z,153821.25
2022-10-21T13:04:33.611Z,153668.34
2022-10-21T13:07:05.761Z,153478.59
2022-10-21T13:09:31.503Z,153245.66
2022-10-21T13:12:04.072Z,153329.66
2022-10-21T13:14:42.713Z,153858.19
2022-10-21T13:17:21.071Z,154469.19
2022-10-21T13:23:30.920Z,153995.91
2022-10-21T13:26:13.582Z,154345.41
2022-10-21T13:28:39.920Z,154446.25
2022-10-21T13:35:05.870Z,153899.00
2022-10-21T13:37:39.797Z,153510.44
2022-10-21T13:40:18.305Z,153367.81
2022-10-21T13:50:48.622Z,153159.13
2022-10-21T13:53:17.476Z,153039.56
2022-10-21T13:56:04.426Z,153094.25
2022-10-21T13:58:46.019Z,153099.31
2022-10-21T14:01:45.751Z,153001.44
2022-10-21T14:04:37.066Z,152988.69
2022-10-21T14:14:47.320Z,152689.97
2022-10-21T14:17:40.542Z,152673.44
2022-10-21T14:20:59.409Z,152670.91
2022-10-21T14:49:50.179Z,152606.13
2022-10-21T14:52:22.441Z,152622.63
2022-10-21T14:54:57.091Z,152641.69
2022-10-21T14:57:38.574Z,152603.59
2022-10-21T15:00:09.499Z,152589.59
2022-10-21T15:02:37.009Z,152611.19
2022-10-21T15:05:24.815Z,152628.97
2022-10-21T15:07:50.709Z,152598.50
2022-10-21T15:10:19.358Z,152571.81
2022-10-21T15:12:50.615Z,152574.34
2022-10-21T15:15:48.215Z,152522.28
2022-10-21T15:18:25.957Z,152510.88
2022-10-21T15:21:22.697Z,152493.09
2022-10-21T15:23:52.327Z,152474.06
2022-10-21T15:26:23.319Z,152456.28
2022-10-21T15:28:50.164Z,152455.03
2022-10-21T15:31:21.393Z,152471.53
2022-10-21T15:33:48.876Z,152484.19
2022-10-21T15:36:15.364Z,152463.88
2022-10-21T15:38:47.665Z,152433.44
2022-10-21T15:41:18.122Z,152466.41
2022-10-21T15:43:57.526Z,152470.25
2022-10-21T15:46:27.979Z,152442.31
2022-10-21T15:48:54.362Z,152434.72
2022-10-21T15:51:20.189Z,152442.31
2022-10-21T15:53:46.137Z,152457.56
2022-10-21T15:56:17.005Z,152446.09
2022-10-21T15:58:42.856Z,152446.09
2022-10-21T16:01:16.652Z,152404.19
2022-10-21T16:03:44.090Z,152369.91
2022-10-21T16:06:15.586Z,152376.22
2022-10-21T16:08:41.562Z,152369.91
2022-10-21T16:11:21.749Z,152387.69
2022-10-21T16:13:55.703Z,152410.56
2022-10-21T16:16:25.148Z,152418.19
2022-10-21T16:18:52.377Z,152397.84
2022-10-21T16:21:20.126Z,152402.91
2022-10-21T16:23:46.431Z,152392.75
2022-10-21T16:26:21.157Z,152410.56
2022-10-21T16:28:51.180Z,152391.47
2022-10-21T16:31:17.790Z,152394.00
2022-10-21T16:33:44.514Z,152410.56
2022-10-21T16:36:16.026Z,152373.69
2022-10-21T16:38:43.305Z,152358.47
2022-10-21T16:41:14.350Z,152397.84
2022-10-21T16:43:40.560Z,152377.50
2022-10-21T16:46:25.768Z,152345.81
2022-10-21T16:48:52.933Z,152343.28
2022-10-21T16:51:23.351Z,152347.06
2022-10-21T16:53:49.560Z,152340.69
2022-10-21T16:56:16.251Z,152347.06
2022-10-21T16:58:42.623Z,152339.44
2022-10-21T17:01:13.544Z,152320.38
2022-10-21T17:03:39.442Z,152343.28
2022-10-21T17:06:05.367Z,152345.81
2022-10-21T17:08:31.249Z,152312.78
2022-10-21T17:10:57.208Z,152296.28
2022-10-21T17:13:23.080Z,152306.41
2022-10-21T17:15:49.061Z,152286.13
2022-10-21T17:18:15.873Z,152277.25
2022-10-21T17:20:42.142Z,152287.38
2022-10-21T17:23:09.563Z,152270.94
2022-10-21T17:25:35.395Z,152288.69
2022-10-21T17:28:01.458Z,152260.75
2022-10-21T17:30:27.224Z,152250.59
2022-10-21T17:32:53.064Z,152239.19
2022-10-21T17:35:19.403Z,152230.28
2022-10-21T17:37:47.789Z,152234.09
2022-10-21T17:40:16.082Z,152231.56
2022-10-21T17:42:42.232Z,152213.81
2022-10-21T17:45:10.249Z,152199.88
2022-10-21T17:51:17.504Z,152221.44
2022-10-21T17:53:43.341Z,152197.31
2022-10-21T17:56:52.980Z,152202.41
2022-10-21T18:15:07.726Z,152188.44
2022-10-21T18:18:02.769Z,152190.97
2022-10-21T18:24:34.220Z,152192.25
2022-10-21T18:27:09.801Z,152199.88
2022-10-21T18:33:38.483Z,152174.47
2022-10-21T18:36:12.772Z,152184.66
2022-10-21T18:38:39.323Z,152165.63
2022-10-21T18:41:20.999Z,152166.88
2022-10-21T18:43:49.815Z,152164.34
2022-10-21T18:46:16.339Z,152177.00
2022-10-21T18:48:42.464Z,152166.88
2022-10-21T18:51:10.219Z,152150.41
2022-10-21T18:53:37.236Z,152144.00
2022-10-21T18:56:08.110Z,152150.41
2022-10-21T18:58:35.617Z,152152.91
2022-10-21T19:01:04.187Z,152147.88
2022-10-21T19:03:30.951Z,152126.31
2022-10-21T19:05:57.286Z,152130.09
2022-10-21T19:08:23.411Z,152128.84
2022-10-21T19:10:49.256Z,152128.84
2022-10-21T19:13:15.097Z,152140.22
2022-10-21T19:15:40.940Z,152140.22
2022-10-21T19:18:10.989Z,152161.78
2022-10-21T19:20:36.877Z,152141.50
2022-10-21T19:23:02.716Z,152142.75
2022-10-21T19:25:28.514Z,152157.97
2022-10-21T19:27:54.343Z,152174.47
2022-10-21T19:30:20.189Z,152163.09
2022-10-21T19:32:46.080Z,152154.19
2022-10-21T19:35:11.888Z,152151.66
2022-10-21T19:37:37.803Z,152128.84
2022-10-21T19:40:03.944Z,152146.59
2022-10-21T19:42:31.190Z,152131.38
2022-10-21T19:44:57.014Z,152154.19
2022-10-21T19:47:22.806Z,152165.63
2022-10-21T19:49:48.629Z,152168.16
2022-10-21T19:52:14.487Z,152151.66
2022-10-21T19:54:40.466Z,152147.88
2022-10-21T19:57:06.250Z,152126.31
2022-10-21T19:59:32.144Z,152141.50
2022-10-21T20:01:57.926Z,152142.75
2022-10-21T20:04:24.084Z,152152.91
2022-10-21T20:06:49.844Z,152141.50
2022-10-21T20:09:16.165Z,152146.59
2022-10-21T20:11:42.356Z,152189.72
2022-10-21T20:14:12.306Z,152177.00
2022-10-21T20:16:41.328Z,152159.25
2022-10-21T20:19:07.251Z,152179.53
2022-10-21T20:21:34.704Z,152177.00
2022-10-21T20:24:00.494Z,152170.69
2022-10-21T20:26:28.037Z,152147.88
2022-10-21T20:28:54.171Z,152179.53
2022-10-21T20:31:20.448Z,152185.91
2022-10-21T20:33:49.027Z,152168.16
2022-10-21T20:36:29.718Z,152170.69
2022-10-21T20:38:57.616Z,152160.50
2022-10-21T20:41:26.325Z,152159.25
2022-10-21T20:43:53.373Z,152157.97
2022-10-21T20:46:20.677Z,152131.38
2022-10-21T20:48:48.454Z,152160.50
2022-10-21T20:51:19.969Z,152147.88
2022-10-21T20:56:19.765Z,152177.00
2022-10-21T20:58:46.135Z,152131.38
2022-10-21T21:01:27.432Z,152164.34
2022-10-21T21:03:58.635Z,152144.00
2022-10-21T21:06:25.306Z,152164.34
2022-10-21T21:09:14.703Z,152141.50
2022-10-21T21:11:37.896Z,152138.97
2022-10-21T21:14:03.865Z,152137.69
2022-10-21T21:16:29.971Z,152130.09
2022-10-21T21:19:02.331Z,152138.97
2022-10-21T21:21:28.904Z,152128.84
2022-10-21T21:23:55.780Z,152159.25
2022-10-21T21:26:24.394Z,152125.00
2022-10-21T21:28:50.627Z,152121.19
2022-10-21T21:31:17.630Z,152133.91
2022-10-21T21:33:44.636Z,152141.50
2022-10-21T21:36:11.888Z,152155.44
2022-10-21T21:38:38.341Z,152161.78
2022-10-21T21:41:06.709Z,152127.56
2022-10-21T21:43:35.753Z,152123.72
2022-10-21T21:46:01.572Z,152119.94
2022-10-21T21:48:27.559Z,152142.75
2022-10-21T21:51:05.296Z,152137.69
2022-10-21T21:53:31.171Z,152093.28
2022-10-21T21:56:03.096Z,152125.00
2022-10-21T21:58:29.767Z,152117.41
2022-10-21T22:00:55.574Z,152122.47
2022-10-21T22:03:21.753Z,152114.88
2022-10-21T22:05:47.625Z,152146.59
2022-10-21T22:08:13.796Z,152118.66
2022-10-21T22:10:39.741Z,152107.22
2022-10-21T22:13:05.566Z,152122.47
2022-10-21T22:15:48.428Z,152112.34
2022-10-21T22:18:14.587Z,152111.09
2022-10-21T22:20:40.421Z,152132.63
2022-10-21T22:23:06.467Z,152113.63
2022-10-21T22:25:32.270Z,152111.09
2022-10-21T22:27:58.094Z,152122.47
2022-10-21T22:30:23.870Z,152145.34
2022-10-21T22:32:49.664Z,152079.31
2022-10-21T22:35:15.491Z,152090.75
2022-10-21T22:37:41.594Z,152089.44
2022-10-21T22:40:08.091Z,152084.38
2022-10-21T22:42:33.969Z,152098.38
2022-10-21T22:44:59.809Z,152089.44
2022-10-21T22:47:25.638Z,152076.78
2022-10-21T22:49:51.462Z,152085.63
2022-10-21T22:52:17.734Z,152080.56
2022-10-21T22:54:49.429Z,152093.28
2022-10-21T22:57:15.952Z,152094.59
2022-10-21T22:59:43.980Z,152090.75
2022-10-21T23:02:10.864Z,152097.13
2022-10-21T23:04:36.812Z,152118.66
2022-10-21T23:07:02.693Z,152104.72
2022-10-21T23:09:28.466Z,152089.44
2022-10-21T23:11:54.478Z,152098.38
2022-10-21T23:14:20.307Z,152097.13
2022-10-21T23:16:46.090Z,152085.63
2022-10-21T23:21:42.962Z,152109.81
2022-10-21T23:24:09.587Z,152080.56
2022-10-21T23:26:35.408Z,152089.44
2022-10-21T23:29:01.506Z,152097.13
2022-10-21T23:31:27.330Z,152070.41
2022-10-21T23:33:53.088Z,152107.22
2022-10-21T23:36:19.002Z,152081.84
2022-10-21T23:38:44.760Z,152097.13
2022-10-21T23:41:10.542Z,152069.16
2022-10-21T23:43:36.366Z,152064.09
2022-10-21T23:46:02.190Z,152076.78
2022-10-21T23:48:28.039Z,152056.50
2022-10-21T23:50:53.843Z,152048.84
2022-10-21T23:53:19.643Z,152062.81
2022-10-21T23:55:45.499Z,152095.84
2022-10-21T23:58:11.299Z,152105.97
